sensor_id;sensor_type;location;lat;lon;timestamp;pressure;altitude;pressure_sealevel;temperature;humidity
64200;BME280;50516;52.272;5.136;2023-03-14T00:02:20;98783.31;;;10.25;84.76
64200;BME280;50516;52.272;5.136;2023-03-14T00:04:46;98783.06;;;10.35;84.23
64200;BME280;50516;52.272;5.136;2023-03-14T00:07:12;98782.88;;;10.40;84.27
64200;BME280;50516;52.272;5.136;2023-03-14T00:09:38;98789.50;;;10.57;83.41
64200;BME280;50516;52.272;5.136;2023-03-14T00:12:03;98786.28;;;10.64;83.70
64200;BME280;50516;52.272;5.136;2023-03-14T00:14:30;98786.44;;;10.50;83.91
64200;BME280;50516;52.272;5.136;2023-03-14T00:16:56;98785.63;;;10.58;83.72
64200;BME280;50516;52.272;5.136;2023-03-14T00:19:21;98796.28;;;10.51;84.11
64200;BME280;50516;52.272;5.136;2023-03-14T00:21:47;98798.06;;;10.55;84.03
64200;BME280;50516;52.272;5.136;2023-03-14T00:24:12;98793.22;;;10.61;84.13
64200;BME280;50516;52.272;5.136;2023-03-14T00:26:37;98787.56;;;10.57;84.39
64200;BME280;50516;52.272;5.136;2023-03-14T00:29:02;98793.38;;;10.56;84.55
64200;BME280;50516;52.272;5.136;2023-03-14T00:31:28;98784.50;;;10.59;83.93
64200;BME280;50516;52.272;5.136;2023-03-14T00:33:53;98791.44;;;10.65;83.57
64200;BME280;50516;52.272;5.136;2023-03-14T00:36:19;98772.72;;;10.58;83.98
64200;BME280;50516;52.272;5.136;2023-03-14T00:38:50;98773.50;;;10.59;84.35
64200;BME280;50516;52.272;5.136;2023-03-14T00:41:18;98768.50;;;10.52;84.03
64200;BME280;50516;52.272;5.136;2023-03-14T00:43:43;98760.28;;;10.52;84.25
64200;BME280;50516;52.272;5.136;2023-03-14T00:46:09;98785.13;;;10.56;84.30
64200;BME280;50516;52.272;5.136;2023-03-14T00:48:35;98783.53;;;10.72;84.00
64200;BME280;50516;52.272;5.136;2023-03-14T00:51:02;98796.75;;;10.70;83.73
64200;BME280;50516;52.272;5.136;2023-03-14T00:53:28;98789.66;;;10.60;83.97
64200;BME280;50516;52.272;5.136;2023-03-14T00:55:53;98777.25;;;10.63;83.54
64200;BME280;50516;52.272;5.136;2023-03-14T00:58:18;98793.53;;;10.68;83.15
64200;BME280;50516;52.272;5.136;2023-03-14T01:00:44;98790.47;;;10.70;83.67
64200;BME280;50516;52.272;5.136;2023-03-14T01:03:12;98791.59;;;10.69;84.03
64200;BME280;50516;52.272;5.136;2023-03-14T01:05:38;98795.31;;;10.55;85.91
64200;BME280;50516;52.272;5.136;2023-03-14T01:08:04;98789.19;;;10.50;87.27
64200;BME280;50516;52.272;5.136;2023-03-14T01:10:30;98779.81;;;10.42;88.22
64200;BME280;50516;52.272;5.136;2023-03-14T01:12:55;98800.47;;;10.39;88.51
64200;BME280;50516;52.272;5.136;2023-03-14T01:15:21;98780.13;;;10.40;88.75
64200;BME280;50516;52.272;5.136;2023-03-14T01:17:47;98788.22;;;10.46;88.06
64200;BME280;50516;52.272;5.136;2023-03-14T01:20:13;98785.94;;;10.48;87.99
64200;BME280;50516;52.272;5.136;2023-03-14T01:22:40;98782.25;;;10.44;88.76
64200;BME280;50516;52.272;5.136;2023-03-14T01:25:08;98785.94;;;10.39;89.61
64200;BME280;50516;52.272;5.136;2023-03-14T01:27:34;98784.47;;;10.24;91.94
64200;BME280;50516;52.272;5.136;2023-03-14T01:29:59;98802.69;;;10.29;93.07
64200;BME280;50516;52.272;5.136;2023-03-14T01:32:25;98792.19;;;10.22;94.25
64200;BME280;50516;52.272;5.136;2023-03-14T01:34:51;98796.06;;;10.21;95.08
64200;BME280;50516;52.272;5.136;2023-03-14T01:37:17;98789.44;;;10.13;95.74
64200;BME280;50516;52.272;5.136;2023-03-14T01:39:42;98800.56;;;10.17;95.69
64200;BME280;50516;52.272;5.136;2023-03-14T01:42:07;98793.78;;;10.14;96.00
64200;BME280;50516;52.272;5.136;2023-03-14T01:47:13;98791.69;;;10.11;95.81
64200;BME280;50516;52.272;5.136;2023-03-14T01:49:39;98786.00;;;10.08;96.32
64200;BME280;50516;52.272;5.136;2023-03-14T01:52:09;98777.47;;;10.09;96.07
64200;BME280;50516;52.272;5.136;2023-03-14T01:59:35;98765.22;;;10.07;95.43
64200;BME280;50516;52.272;5.136;2023-03-14T02:02:04;98764.25;;;10.02;95.31
64200;BME280;50516;52.272;5.136;2023-03-14T02:04:34;98755.38;;;10.05;95.12
64200;BME280;50516;52.272;5.136;2023-03-14T02:07:07;98765.88;;;10.03;95.08
64200;BME280;50516;52.272;5.136;2023-03-14T02:09:36;98761.03;;;10.09;94.65
64200;BME280;50516;52.272;5.136;2023-03-14T02:12:02;98763.94;;;10.13;94.71
64200;BME280;50516;52.272;5.136;2023-03-14T02:14:33;98752.81;;;10.18;94.13
64200;BME280;50516;52.272;5.136;2023-03-14T02:17:00;98757.97;;;10.11;94.79
64200;BME280;50516;52.272;5.136;2023-03-14T02:22:30;98745.56;;;10.22;93.96
64200;BME280;50516;52.272;5.136;2023-03-14T02:25:22;98748.03;;;10.32;93.79
64200;BME280;50516;52.272;5.136;2023-03-14T02:27:52;98740.22;;;10.17;93.78
64200;BME280;50516;52.272;5.136;2023-03-14T02:30:20;98739.09;;;10.09;94.18
64200;BME280;50516;52.272;5.136;2023-03-14T02:32:48;98744.44;;;10.14;94.19
64200;BME280;50516;52.272;5.136;2023-03-14T02:35:18;98741.69;;;10.14;94.16
64200;BME280;50516;52.272;5.136;2023-03-14T02:37:50;98744.13;;;10.16;94.34
64200;BME280;50516;52.272;5.136;2023-03-14T02:40:17;98741.66;;;10.05;94.92
64200;BME280;50516;52.272;5.136;2023-03-14T02:42:42;98739.44;;;10.16;94.29
64200;BME280;50516;52.272;5.136;2023-03-14T02:47:34;98734.25;;;10.15;94.52
64200;BME280;50516;52.272;5.136;2023-03-14T02:50:09;98733.59;;;10.09;94.60
64200;BME280;50516;52.272;5.136;2023-03-14T02:52:35;98729.41;;;10.20;93.94
64200;BME280;50516;52.272;5.136;2023-03-14T02:55:00;98725.41;;;10.18;94.04
64200;BME280;50516;52.272;5.136;2023-03-14T02:57:25;98730.06;;;10.09;94.67
64200;BME280;50516;52.272;5.136;2023-03-14T02:59:51;98721.34;;;10.07;94.60
64200;BME280;50516;52.272;5.136;2023-03-14T03:02:16;98729.91;;;10.05;94.97
64200;BME280;50516;52.272;5.136;2023-03-14T03:04:42;98726.69;;;10.12;95.05
64200;BME280;50516;52.272;5.136;2023-03-14T03:07:07;98721.19;;;10.12;94.59
64200;BME280;50516;52.272;5.136;2023-03-14T03:09:33;98721.19;;;10.03;94.59
64200;BME280;50516;52.272;5.136;2023-03-14T03:11:58;98721.50;;;10.01;95.04
64200;BME280;50516;52.272;5.136;2023-03-14T03:14:23;98716.03;;;10.01;94.74
64200;BME280;50516;52.272;5.136;2023-03-14T03:16:48;98719.06;;;9.91;94.82
64200;BME280;50516;52.272;5.136;2023-03-14T03:19:14;98709.56;;;9.97;94.16
64200;BME280;50516;52.272;5.136;2023-03-14T03:21:41;98711.81;;;9.95;94.19
64200;BME280;50516;52.272;5.136;2023-03-14T03:24:06;98717.78;;;9.89;94.25
64200;BME280;50516;52.272;5.136;2023-03-14T03:26:35;98722.13;;;9.81;94.51
64200;BME280;50516;52.272;5.136;2023-03-14T03:29:01;98719.06;;;9.82;94.86
64200;BME280;50516;52.272;5.136;2023-03-14T03:31:27;98706.31;;;9.78;95.13
64200;BME280;50516;52.272;5.136;2023-03-14T03:33:52;98700.50;;;9.88;94.86
64200;BME280;50516;52.272;5.136;2023-03-14T03:36:22;98701.63;;;9.78;94.85
64200;BME280;50516;52.272;5.136;2023-03-14T03:38:47;98703.56;;;9.78;95.57
64200;BME280;50516;52.272;5.136;2023-03-14T03:41:13;98701.16;;;9.76;95.72
64200;BME280;50516;52.272;5.136;2023-03-14T03:43:38;98700.97;;;9.73;95.80
64200;BME280;50516;52.272;5.136;2023-03-14T03:46:04;98704.19;;;9.75;95.70
64200;BME280;50516;52.272;5.136;2023-03-14T03:48:30;98704.03;;;9.80;95.87
64200;BME280;50516;52.272;5.136;2023-03-14T03:50:55;98701.47;;;9.75;95.82
64200;BME280;50516;52.272;5.136;2023-03-14T03:53:21;98710.47;;;9.75;96.13
64200;BME280;50516;52.272;5.136;2023-03-14T03:55:46;98703.72;;;9.81;95.96
64200;BME280;50516;52.272;5.136;2023-03-14T03:58:11;98704.88;;;9.80;95.19
64200;BME280;50516;52.272;5.136;2023-03-14T04:00:37;98703.72;;;9.73;96.01
64200;BME280;50516;52.272;5.136;2023-03-14T04:03:02;98693.56;;;9.73;95.81
64200;BME280;50516;52.272;5.136;2023-03-14T04:05:27;98705.00;;;9.75;95.85
64200;BME280;50516;52.272;5.136;2023-03-14T04:07:53;98681.97;;;9.76;95.62
64200;BME280;50516;52.272;5.136;2023-03-14T04:10:18;98692.44;;;9.83;95.46
64200;BME280;50516;52.272;5.136;2023-03-14T04:12:43;98695.03;;;9.79;95.67
64200;BME280;50516;52.272;5.136;2023-03-14T04:15:09;98700.50;;;9.88;95.24
64200;BME280;50516;52.272;5.136;2023-03-14T04:17:34;98696.00;;;9.83;95.39
64200;BME280;50516;52.272;5.136;2023-03-14T04:20:00;98695.19;;;9.83;95.56
64200;BME280;50516;52.272;5.136;2023-03-14T04:22:25;98696.81;;;9.84;95.50
64200;BME280;50516;52.272;5.136;2023-03-14T04:24:51;98703.25;;;9.79;95.75
64200;BME280;50516;52.272;5.136;2023-03-14T04:27:16;98698.88;;;9.78;95.91
64200;BME280;50516;52.272;5.136;2023-03-14T04:29:42;98691.97;;;9.81;95.57
64200;BME280;50516;52.272;5.136;2023-03-14T04:32:08;98696.81;;;9.84;95.46
64200;BME280;50516;52.272;5.136;2023-03-14T04:34:33;98694.22;;;9.87;95.43
64200;BME280;50516;52.272;5.136;2023-03-14T04:36:58;98697.47;;;9.98;95.26
64200;BME280;50516;52.272;5.136;2023-03-14T04:39:23;98695.06;;;10.05;94.96
64200;BME280;50516;52.272;5.136;2023-03-14T04:41:49;98696.66;;;9.89;95.52
64200;BME280;50516;52.272;5.136;2023-03-14T04:44:14;98693.91;;;9.89;95.64
64200;BME280;50516;52.272;5.136;2023-03-14T04:46:39;98701.50;;;9.92;96.10
64200;BME280;50516;52.272;5.136;2023-03-14T04:49:05;98698.09;;;9.86;96.83
64200;BME280;50516;52.272;5.136;2023-03-14T04:51:30;98698.28;;;9.90;97.23
64200;BME280;50516;52.272;5.136;2023-03-14T04:53:55;98700.34;;;9.76;98.58
64200;BME280;50516;52.272;5.136;2023-03-14T04:56:21;98699.84;;;9.65;100.00
64200;BME280;50516;52.272;5.136;2023-03-14T04:58:46;98708.72;;;9.71;100.00
64200;BME280;50516;52.272;5.136;2023-03-14T05:01:11;98699.19;;;9.77;100.00
64200;BME280;50516;52.272;5.136;2023-03-14T05:03:37;98705.66;;;9.72;100.00
64200;BME280;50516;52.272;5.136;2023-03-14T05:06:03;98706.44;;;9.64;100.00
64200;BME280;50516;52.272;5.136;2023-03-14T05:08:29;98710.31;;;9.72;100.00
64200;BME280;50516;52.272;5.136;2023-03-14T05:10:55;98703.09;;;9.76;100.00
64200;BME280;50516;52.272;5.136;2023-03-14T05:13:21;98690.34;;;9.71;100.00
64200;BME280;50516;52.272;5.136;2023-03-14T05:15:46;98686.00;;;9.79;100.00
64200;BME280;50516;52.272;5.136;2023-03-14T05:18:12;98683.06;;;9.66;100.00
64200;BME280;50516;52.272;5.136;2023-03-14T05:20:37;98669.69;;;9.65;100.00
64200;BME280;50516;52.272;5.136;2023-03-14T05:23:02;98665.69;;;9.80;100.00
64200;BME280;50516;52.272;5.136;2023-03-14T05:25:28;98667.59;;;9.62;100.00
64200;BME280;50516;52.272;5.136;2023-03-14T05:27:54;98672.09;;;9.58;100.00
64200;BME280;50516;52.272;5.136;2023-03-14T05:30:20;98667.28;;;9.63;100.00
64200;BME280;50516;52.272;5.136;2023-03-14T05:32:47;98659.22;;;9.58;100.00
64200;BME280;50516;52.272;5.136;2023-03-14T05:35:12;98668.72;;;9.61;100.00
64200;BME280;50516;52.272;5.136;2023-03-14T05:37:37;98670.50;;;9.65;100.00
64200;BME280;50516;52.272;5.136;2023-03-14T05:40:04;98669.22;;;9.72;100.00
64200;BME280;50516;52.272;5.136;2023-03-14T05:42:31;98671.94;;;9.72;100.00
64200;BME280;50516;52.272;5.136;2023-03-14T05:44:57;98672.28;;;9.61;100.00
64200;BME280;50516;52.272;5.136;2023-03-14T05:47:22;98680.66;;;9.74;100.00
64200;BME280;50516;52.272;5.136;2023-03-14T05:49:47;98686.97;;;9.74;100.00
64200;BME280;50516;52.272;5.136;2023-03-14T05:52:13;98698.72;;;9.66;100.00
64200;BME280;50516;52.272;5.136;2023-03-14T05:54:39;98697.44;;;9.72;100.00
64200;BME280;50516;52.272;5.136;2023-03-14T05:57:04;98688.22;;;9.68;100.00
64200;BME280;50516;52.272;5.136;2023-03-14T05:59:29;98703.38;;;9.65;100.00
64200;BME280;50516;52.272;5.136;2023-03-14T06:01:55;98705.78;;;9.58;100.00
64200;BME280;50516;52.272;5.136;2023-03-14T06:04:20;98718.06;;;9.61;100.00
64200;BME280;50516;52.272;5.136;2023-03-14T06:06:45;98745.41;;;9.52;100.00
64200;BME280;50516;52.272;5.136;2023-03-14T06:09:11;98741.00;;;9.42;100.00
64200;BME280;50516;52.272;5.136;2023-03-14T06:11:36;98763.88;;;9.38;100.00
64200;BME280;50516;52.272;5.136;2023-03-14T06:14:01;98769.25;;;9.20;100.00
64200;BME280;50516;52.272;5.136;2023-03-14T06:16:26;98781.13;;;9.16;100.00
64200;BME280;50516;52.272;5.136;2023-03-14T06:18:52;98783.22;;;8.87;100.00
64200;BME280;50516;52.272;5.136;2023-03-14T06:21:17;98788.13;;;8.76;100.00
64200;BME280;50516;52.272;5.136;2023-03-14T06:23:44;98800.56;;;8.60;100.00
64200;BME280;50516;52.272;5.136;2023-03-14T06:26:09;98811.13;;;8.39;100.00
64200;BME280;50516;52.272;5.136;2023-03-14T06:28:34;98812.06;;;8.48;100.00
64200;BME280;50516;52.272;5.136;2023-03-14T06:31:00;98826.03;;;8.47;100.00
64200;BME280;50516;52.272;5.136;2023-03-14T06:33:25;98830.28;;;8.39;100.00
64200;BME280;50516;52.272;5.136;2023-03-14T06:35:51;98828.59;;;8.43;100.00
64200;BME280;50516;52.272;5.136;2023-03-14T06:38:16;98854.06;;;8.52;100.00
64200;BME280;50516;52.272;5.136;2023-03-14T06:40:41;98858.88;;;8.47;100.00
64200;BME280;50516;52.272;5.136;2023-03-14T06:43:06;98865.44;;;8.32;100.00
64200;BME280;50516;52.272;5.136;2023-03-14T06:45:32;98862.78;;;8.27;100.00
64200;BME280;50516;52.272;5.136;2023-03-14T06:47:57;98868.78;;;8.29;100.00
64200;BME280;50516;52.272;5.136;2023-03-14T06:50:22;98871.53;;;8.29;100.00
64200;BME280;50516;52.272;5.136;2023-03-14T06:52:48;98888.34;;;8.22;100.00
64200;BME280;50516;52.272;5.136;2023-03-14T06:55:14;98904.03;;;8.16;100.00
64200;BME280;50516;52.272;5.136;2023-03-14T06:57:40;98911.22;;;8.26;100.00
64200;BME280;50516;52.272;5.136;2023-03-14T07:00:06;98921.75;;;8.19;100.00
64200;BME280;50516;52.272;5.136;2023-03-14T07:02:31;98924.38;;;7.96;100.00
64200;BME280;50516;52.272;5.136;2023-03-14T07:04:56;98934.78;;;7.80;100.00
64200;BME280;50516;52.272;5.136;2023-03-14T07:07:22;98936.66;;;7.66;100.00
64200;BME280;50516;52.272;5.136;2023-03-14T07:09:47;98945.75;;;7.61;100.00
64200;BME280;50516;52.272;5.136;2023-03-14T07:12:12;98959.34;;;7.47;100.00
64200;BME280;50516;52.272;5.136;2023-03-14T07:14:38;98959.50;;;7.56;100.00
64200;BME280;50516;52.272;5.136;2023-03-14T07:17:03;98977.28;;;7.54;100.00
64200;BME280;50516;52.272;5.136;2023-03-14T07:19:28;98975.97;;;7.51;99.70
64200;BME280;50516;52.272;5.136;2023-03-14T07:21:53;98984.38;;;7.55;99.67
64200;BME280;50516;52.272;5.136;2023-03-14T07:24:19;99001.53;;;7.74;99.60
64200;BME280;50516;52.272;5.136;2023-03-14T07:26:44;99017.34;;;7.58;98.75
64200;BME280;50516;52.272;5.136;2023-03-14T07:29:10;99026.13;;;7.74;98.73
64200;BME280;50516;52.272;5.136;2023-03-14T07:31:35;99038.47;;;7.53;98.98
64200;BME280;50516;52.272;5.136;2023-03-14T07:34:00;99041.81;;;7.49;99.66
64200;BME280;50516;52.272;5.136;2023-03-14T07:36:26;99064.44;;;7.31;99.92
64200;BME280;50516;52.272;5.136;2023-03-14T07:38:51;99081.88;;;7.54;100.00
64200;BME280;50516;52.272;5.136;2023-03-14T07:41:18;99102.44;;;7.27;98.91
64200;BME280;50516;52.272;5.136;2023-03-14T07:43:43;99116.28;;;6.88;99.29
64200;BME280;50516;52.272;5.136;2023-03-14T07:46:08;99131.25;;;6.66;99.92
64200;BME280;50516;52.272;5.136;2023-03-14T07:48:34;99162.34;;;6.65;100.00
64200;BME280;50516;52.272;5.136;2023-03-14T07:50:59;99158.63;;;6.56;98.94
64200;BME280;50516;52.272;5.136;2023-03-14T07:53:25;99177.72;;;6.21;99.22
64200;BME280;50516;52.272;5.136;2023-03-14T07:55:54;99168.50;;;6.17;99.23
64200;BME280;50516;52.272;5.136;2023-03-14T07:58:20;99179.06;;;6.24;97.93
64200;BME280;50516;52.272;5.136;2023-03-14T08:00:49;99207.50;;;6.13;97.05
64200;BME280;50516;52.272;5.136;2023-03-14T08:03:15;99206.97;;;6.11;97.11
64200;BME280;50516;52.272;5.136;2023-03-14T08:05:42;99234.03;;;6.36;95.98
64200;BME280;50516;52.272;5.136;2023-03-14T08:08:07;99231.63;;;6.64;95.17
64200;BME280;50516;52.272;5.136;2023-03-14T08:10:33;99253.59;;;6.44;93.23
64200;BME280;50516;52.272;5.136;2023-03-14T08:12:59;99252.28;;;6.36;93.69
64200;BME280;50516;52.272;5.136;2023-03-14T08:15:26;99275.63;;;6.52;94.45
64200;BME280;50516;52.272;5.136;2023-03-14T08:17:52;99285.56;;;6.72;93.92
64200;BME280;50516;52.272;5.136;2023-03-14T08:20:19;99280.69;;;6.69;93.20
64200;BME280;50516;52.272;5.136;2023-03-14T08:22:45;99297.31;;;7.02;92.61
64200;BME280;50516;52.272;5.136;2023-03-14T08:25:10;99302.34;;;6.90;91.11
64200;BME280;50516;52.272;5.136;2023-03-14T08:27:36;99312.41;;;7.24;90.94
64200;BME280;50516;52.272;5.136;2023-03-14T08:30:07;99333.00;;;7.11;90.29
64200;BME280;50516;52.272;5.136;2023-03-14T08:32:33;99344.53;;;7.03;89.50
64200;BME280;50516;52.272;5.136;2023-03-14T08:34:58;99351.38;;;7.00;88.01
64200;BME280;50516;52.272;5.136;2023-03-14T08:37:24;99358.53;;;7.25;88.07
64200;BME280;50516;52.272;5.136;2023-03-14T08:39:50;99359.75;;;7.43;86.16
64200;BME280;50516;52.272;5.136;2023-03-14T08:42:15;99383.13;;;7.55;85.16
64200;BME280;50516;52.272;5.136;2023-03-14T08:44:41;99391.16;;;7.94;83.50
64200;BME280;50516;52.272;5.136;2023-03-14T08:47:06;99402.47;;;8.12;82.64
64200;BME280;50516;52.272;5.136;2023-03-14T08:49:32;99408.06;;;8.01;80.16
64200;BME280;50516;52.272;5.136;2023-03-14T08:51:57;99410.56;;;7.98;81.03
64200;BME280;50516;52.272;5.136;2023-03-14T08:54:23;99419.13;;;7.86;80.06
64200;BME280;50516;52.272;5.136;2023-03-14T08:56:49;99436.63;;;7.56;79.87
64200;BME280;50516;52.272;5.136;2023-03-14T08:59:14;99446.84;;;7.45;82.24
64200;BME280;50516;52.272;5.136;2023-03-14T09:01:39;99446.50;;;7.17;81.72
64200;BME280;50516;52.272;5.136;2023-03-14T09:04:04;99460.78;;;7.04;82.40
64200;BME280;50516;52.272;5.136;2023-03-14T09:06:30;99475.19;;;7.15;82.11
64200;BME280;50516;52.272;5.136;2023-03-14T09:08:56;99480.72;;;6.99;81.02
64200;BME280;50516;52.272;5.136;2023-03-14T09:11:21;99485.03;;;7.10;82.16
64200;BME280;50516;52.272;5.136;2023-03-14T09:13:46;99491.84;;;7.13;82.17
64200;BME280;50516;52.272;5.136;2023-03-14T09:16:12;99499.50;;;7.11;82.00
64200;BME280;50516;52.272;5.136;2023-03-14T09:18:37;99509.59;;;7.10;82.13
64200;BME280;50516;52.272;5.136;2023-03-14T09:21:03;99519.66;;;7.20;82.33
64200;BME280;50516;52.272;5.136;2023-03-14T09:23:28;99520.47;;;7.21;83.85
64200;BME280;50516;52.272;5.136;2023-03-14T09:25:55;99542.84;;;7.62;83.14
64200;BME280;50516;52.272;5.136;2023-03-14T09:28:20;99524.41;;;7.78;82.03
64200;BME280;50516;52.272;5.136;2023-03-14T09:30:46;99550.38;;;8.10;81.62
64200;BME280;50516;52.272;5.136;2023-03-14T09:33:11;99555.06;;;7.75;80.47
64200;BME280;50516;52.272;5.136;2023-03-14T09:35:36;99566.81;;;8.05;80.57
64200;BME280;50516;52.272;5.136;2023-03-14T09:38:02;99574.25;;;7.99;80.98
64200;BME280;50516;52.272;5.136;2023-03-14T09:40:32;99594.31;;;7.84;81.55
64200;BME280;50516;52.272;5.136;2023-03-14T09:42:58;99595.13;;;7.45;80.50
64200;BME280;50516;52.272;5.136;2023-03-14T09:45:29;99612.53;;;7.05;81.06
64200;BME280;50516;52.272;5.136;2023-03-14T09:47:57;99616.72;;;6.82;83.52
64200;BME280;50516;52.272;5.136;2023-03-14T09:50:25;99638.81;;;6.80;85.36
64200;BME280;50516;52.272;5.136;2023-03-14T09:52:57;99641.13;;;7.18;85.55
64200;BME280;50516;52.272;5.136;2023-03-14T09:55:24;99654.34;;;6.90;86.00
64200;BME280;50516;52.272;5.136;2023-03-14T09:57:54;99666.38;;;6.43;85.89
64200;BME280;50516;52.272;5.136;2023-03-14T10:00:23;99660.06;;;6.78;86.74
64200;BME280;50516;52.272;5.136;2023-03-14T10:03:14;99667.06;;;7.20;85.27
64200;BME280;50516;52.272;5.136;2023-03-14T10:05:44;99676.09;;;7.16;83.09
64200;BME280;50516;52.272;5.136;2023-03-14T10:08:11;99689.09;;;7.39;82.63
64200;BME280;50516;52.272;5.136;2023-03-14T10:10:36;99695.34;;;7.50;81.29
64200;BME280;50516;52.272;5.136;2023-03-14T10:13:17;99703.44;;;8.15;81.41
64200;BME280;50516;52.272;5.136;2023-03-14T10:15:48;99715.44;;;8.19;78.43
64200;BME280;50516;52.272;5.136;2023-03-14T10:18:16;99721.66;;;8.30;76.44
64200;BME280;50516;52.272;5.136;2023-03-14T10:20:44;99733.50;;;8.20;75.59
64200;BME280;50516;52.272;5.136;2023-03-14T10:25:46;99761.31;;;7.78;74.74
64200;BME280;50516;52.272;5.136;2023-03-14T10:28:28;99783.81;;;7.59;73.55
64200;BME280;50516;52.272;5.136;2023-03-14T10:30:55;99789.88;;;7.41;72.35
64200;BME280;50516;52.272;5.136;2023-03-14T10:33:23;99790.19;;;7.19;72.01
64200;BME280;50516;52.272;5.136;2023-03-14T10:35:54;99800.50;;;7.42;71.49
64200;BME280;50516;52.272;5.136;2023-03-14T10:38:23;99804.25;;;7.72;70.12
64200;BME280;50516;52.272;5.136;2023-03-14T10:40:52;99821.22;;;7.64;68.43
64200;BME280;50516;52.272;5.136;2023-03-14T10:43:22;99829.72;;;7.47;68.69
64200;BME280;50516;52.272;5.136;2023-03-14T10:45:57;99832.19;;;7.33;68.60
64200;BME280;50516;52.272;5.136;2023-03-14T10:48:30;99847.25;;;7.30;70.50
64200;BME280;50516;52.272;5.136;2023-03-14T10:51:03;99859.50;;;7.28;69.93
64200;BME280;50516;52.272;5.136;2023-03-14T10:53:43;99877.22;;;7.61;69.79
64200;BME280;50516;52.272;5.136;2023-03-14T10:56:17;99865.63;;;8.00;69.37
64200;BME280;50516;52.272;5.136;2023-03-14T10:58:46;99875.72;;;8.10;66.26
64200;BME280;50516;52.272;5.136;2023-03-14T11:01:27;99899.16;;;8.32;64.69
64200;BME280;50516;52.272;5.136;2023-03-14T11:04:03;99900.78;;;8.43;64.12
64200;BME280;50516;52.272;5.136;2023-03-14T11:06:36;99920.44;;;8.95;62.87
64200;BME280;50516;52.272;5.136;2023-03-14T11:12:08;99931.75;;;8.18;61.40
64200;BME280;50516;52.272;5.136;2023-03-14T11:14:42;99937.25;;;7.97;62.73
64200;BME280;50516;52.272;5.136;2023-03-14T11:17:16;99959.31;;;8.32;60.34
64200;BME280;50516;52.272;5.136;2023-03-14T11:20:11;99967.47;;;8.57;59.98
64200;BME280;50516;52.272;5.136;2023-03-14T11:22:47;99970.78;;;8.44;56.60
64200;BME280;50516;52.272;5.136;2023-03-14T11:27:59;99995.94;;;8.36;54.06
64200;BME280;50516;52.272;5.136;2023-03-14T11:30:49;99997.56;;;8.42;53.50
64200;BME280;50516;52.272;5.136;2023-03-14T11:33:24;100015.06;;;8.41;53.62
64200;BME280;50516;52.272;5.136;2023-03-14T11:38:52;100028.22;;;8.44;51.80
64200;BME280;50516;52.272;5.136;2023-03-14T11:41:33;100029.19;;;8.84;54.08
64200;BME280;50516;52.272;5.136;2023-03-14T11:44:03;100034.75;;;8.58;53.44
64200;BME280;50516;52.272;5.136;2023-03-14T11:46:42;100045.44;;;8.55;54.25
64200;BME280;50516;52.272;5.136;2023-03-14T11:51:59;100053.34;;;8.67;53.09
64200;BME280;50516;52.272;5.136;2023-03-14T11:54:39;100073.91;;;8.49;50.39
64200;BME280;50516;52.272;5.136;2023-03-14T11:57:19;100064.91;;;8.48;50.17
64200;BME280;50516;52.272;5.136;2023-03-14T12:00:02;100086.13;;;8.82;52.14
64200;BME280;50516;52.272;5.136;2023-03-14T12:02:54;100079.66;;;8.47;50.33
64200;BME280;50516;52.272;5.136;2023-03-14T12:11:06;100116.03;;;8.32;48.94
64200;BME280;50516;52.272;5.136;2023-03-14T12:13:37;100126.44;;;8.40;49.38
64200;BME280;50516;52.272;5.136;2023-03-14T12:16:07;100119.03;;;8.36;49.80
64200;BME280;50516;52.272;5.136;2023-03-14T12:18:45;100129.94;;;8.72;49.29
64200;BME280;50516;52.272;5.136;2023-03-14T12:21:11;100137.59;;;8.75;48.82
64200;BME280;50516;52.272;5.136;2023-03-14T12:23:54;100143.41;;;8.58;48.10
64200;BME280;50516;52.272;5.136;2023-03-14T12:26:25;100141.75;;;8.26;46.98
64200;BME280;50516;52.272;5.136;2023-03-14T12:42:09;100166.88;;;7.97;49.00
64200;BME280;50516;52.272;5.136;2023-03-14T12:44:46;100178.38;;;8.15;49.50
64200;BME280;50516;52.272;5.136;2023-03-14T12:49:48;100187.47;;;8.51;48.45
64200;BME280;50516;52.272;5.136;2023-03-14T12:52:37;100200.59;;;8.54;47.84
64200;BME280;50516;52.272;5.136;2023-03-14T12:55:10;100213.69;;;8.37;48.11
64200;BME280;50516;52.272;5.136;2023-03-14T12:58:15;100222.16;;;8.25;48.72
64200;BME280;50516;52.272;5.136;2023-03-14T13:00:42;100212.56;;;7.97;48.21
64200;BME280;50516;52.272;5.136;2023-03-14T13:03:26;100224.59;;;8.06;48.03
64200;BME280;50516;52.272;5.136;2023-03-14T13:05:58;100217.25;;;8.37;45.69
64200;BME280;50516;52.272;5.136;2023-03-14T13:11:01;100241.63;;;8.54;45.54
64200;BME280;50516;52.272;5.136;2023-03-14T13:13:28;100247.94;;;8.75;46.38
64200;BME280;50516;52.272;5.136;2023-03-14T13:15:56;100252.56;;;8.90;46.05
64200;BME280;50516;52.272;5.136;2023-03-14T13:18:37;100252.56;;;8.85;47.03
64200;BME280;50516;52.272;5.136;2023-03-14T13:23:31;100262.16;;;8.98;48.00
64200;BME280;50516;52.272;5.136;2023-03-14T13:25:57;100266.81;;;8.82;47.90
64200;BME280;50516;52.272;5.136;2023-03-14T13:28:24;100278.84;;;8.50;50.20
64200;BME280;50516;52.272;5.136;2023-03-14T13:30:54;100276.66;;;8.78;50.44
64200;BME280;50516;52.272;5.136;2023-03-14T13:33:22;100288.09;;;8.39;50.24
64200;BME280;50516;52.272;5.136;2023-03-14T13:35:59;100311.66;;;8.45;51.65
64200;BME280;50516;52.272;5.136;2023-03-14T13:38:27;100307.59;;;7.79;51.10
64200;BME280;50516;52.272;5.136;2023-03-14T13:40:55;100321.88;;;7.92;51.55
64200;BME280;50516;52.272;5.136;2023-03-14T13:43:33;100316.13;;;7.88;49.73
64200;BME280;50516;52.272;5.136;2023-03-14T13:46:05;100338.38;;;7.54;50.59
64200;BME280;50516;52.272;5.136;2023-03-14T13:48:34;100331.22;;;7.43;51.62
64200;BME280;50516;52.272;5.136;2023-03-14T13:51:10;100337.19;;;7.40;50.98
64200;BME280;50516;52.272;5.136;2023-03-14T13:53:54;100343.56;;;7.56;50.78
64200;BME280;50516;52.272;5.136;2023-03-14T13:56:21;100355.19;;;7.83;49.81
64200;BME280;50516;52.272;5.136;2023-03-14T13:58:47;100350.00;;;7.82;49.44
64200;BME280;50516;52.272;5.136;2023-03-14T14:03:40;100361.66;;;8.30;47.13
64200;BME280;50516;52.272;5.136;2023-03-14T14:06:16;100367.94;;;8.20;47.20